createdAt,value
2019-01-12T00:00:23.887Z,-0.80
2019-01-12T00:02:52.334Z,-0.80
2019-01-12T00:05:20.798Z,-0.80
2019-01-12T00:07:49.247Z,-0.80
2019-01-12T00:10:17.866Z,-0.80
2019-01-12T00:12:46.282Z,-0.80
2019-01-12T00:15:14.882Z,-0.80
2019-01-12T00:17:43.305Z,-0.80
2019-01-12T00:20:11.912Z,-0.80
2019-01-12T00:22:40.323Z,-0.80
2019-01-12T00:25:09.299Z,-0.80
2019-01-12T00:27:37.772Z,-0.80
2019-01-12T00:30:09.366Z,-0.70
2019-01-12T00:32:37.790Z,-0.80
2019-01-12T00:35:07.278Z,-0.80
2019-01-12T00:37:35.698Z,-0.80
2019-01-12T00:40:06.678Z,-0.80
2019-01-12T00:42:35.101Z,-0.70
2019-01-12T00:45:04.483Z,-0.70
2019-01-12T00:47:32.907Z,-0.70
2019-01-12T00:50:01.349Z,-0.70
2019-01-12T00:52:29.771Z,-0.60
2019-01-12T00:54:58.246Z,-0.60
2019-01-12T00:57:26.674Z,-0.60
2019-01-12T00:59:55.121Z,-0.60
2019-01-12T01:02:23.570Z,-0.60
2019-01-12T01:04:51.994Z,-0.60
2019-01-12T01:07:20.590Z,-0.60
2019-01-12T01:09:49.026Z,-0.60
2019-01-12T01:12:17.510Z,-0.60
2019-01-12T01:14:45.969Z,-0.60
2019-01-12T01:17:14.501Z,-0.60
2019-01-12T01:19:43.602Z,-0.60
2019-01-12T01:22:12.135Z,-0.60
2019-01-12T01:24:45.774Z,-0.60
2019-01-12T01:27:10.821Z,-0.60
2019-01-12T01:29:39.247Z,-0.60
2019-01-12T01:32:07.755Z,-0.60
2019-01-12T01:34:36.253Z,-0.60
2019-01-12T01:37:05.061Z,-0.50
2019-01-12T01:39:33.487Z,-0.50
2019-01-12T01:42:01.946Z,-0.50
2019-01-12T01:44:30.455Z,-0.50
2019-01-12T01:46:58.995Z,-0.50
2019-01-12T01:49:27.415Z,-0.50
2019-01-12T01:51:55.870Z,-0.50
2019-01-12T01:54:24.334Z,-0.50
2019-01-12T01:56:52.760Z,-0.50
2019-01-12T01:59:21.198Z,-0.50
2019-01-12T02:01:49.697Z,-0.50
2019-01-12T02:04:18.151Z,-0.50
2019-01-12T02:06:46.580Z,-0.50
2019-01-12T02:09:15.018Z,-0.40
2019-01-12T02:11:43.455Z,-0.40
2019-01-12T02:14:11.891Z,-0.40
2019-01-12T02:16:40.310Z,-0.40
2019-01-12T02:19:08.834Z,-0.40
2019-01-12T02:21:37.278Z,-0.40
2019-01-12T02:24:05.960Z,-0.30
2019-01-12T02:26:34.387Z,-0.30
2019-01-12T02:29:02.835Z,-0.30
2019-01-12T02:31:31.295Z,-0.30
2019-01-12T02:33:59.750Z,-0.30
2019-01-12T02:36:28.200Z,-0.30
2019-01-12T02:38:56.623Z,-0.30
2019-01-12T02:41:25.062Z,-0.30
2019-01-12T02:43:53.486Z,-0.30
2019-01-12T02:46:21.933Z,-0.30
2019-01-12T02:48:50.352Z,-0.30
2019-01-12T02:51:18.867Z,-0.30
2019-01-12T02:53:47.306Z,-0.30
2019-01-12T02:56:15.939Z,-0.30
2019-01-12T02:58:44.372Z,-0.30
2019-01-12T03:01:12.814Z,-0.30
2019-01-12T03:03:41.297Z,-0.30
2019-01-12T03:06:09.907Z,-0.30
2019-01-12T03:08:38.343Z,-0.30
2019-01-12T03:11:06.791Z,-0.20
2019-01-12T03:13:35.212Z,-0.20
2019-01-12T03:16:04.626Z,-0.20
2019-01-12T03:18:33.053Z,-0.20
2019-01-12T03:21:01.525Z,-0.20
2019-01-12T03:23:29.940Z,-0.10
2019-01-12T03:25:58.369Z,-0.20
2019-01-12T03:28:26.807Z,-0.10
2019-01-12T03:30:55.233Z,-0.10
2019-01-12T03:33:23.714Z,-0.10
2019-01-12T03:35:52.182Z,-0.20
2019-01-12T03:38:20.648Z,-0.20
2019-01-12T03:40:49.069Z,-0.20
2019-01-12T03:43:17.516Z,-0.20
2019-01-12T03:45:46.090Z,-0.20
2019-01-12T03:48:14.554Z,-0.20
2019-01-12T03:50:42.957Z,-0.20
2019-01-12T03:53:11.392Z,-0.10
2019-01-12T03:55:39.843Z,-0.10
2019-01-12T03:58:08.332Z,-0.10
2019-01-12T04:00:36.757Z,-0.20
2019-01-12T04:03:05.270Z,-0.20
2019-01-12T04:05:33.699Z,-0.20
2019-01-12T04:08:02.208Z,-0.20
2019-01-12T04:10:30.634Z,-0.20
2019-01-12T04:12:59.062Z,-0.20
2019-01-12T04:15:27.846Z,-0.20
2019-01-12T04:17:56.276Z,-0.10
2019-01-12T04:20:24.728Z,-0.10
2019-01-12T04:22:53.149Z,-0.10
2019-01-12T04:25:21.590Z,-0.10
2019-01-12T04:27:50.052Z,-0.10
2019-01-12T04:30:18.689Z,-0.10
2019-01-12T04:32:47.356Z,-0.10
2019-01-12T04:35:15.932Z,-0.10
2019-01-12T04:37:44.436Z,0.00
2019-01-12T04:40:15.490Z,0.00
2019-01-12T04:42:43.976Z,0.00
2019-01-12T04:45:12.850Z,-0.10
2019-01-12T04:47:41.285Z,0.00
2019-01-12T04:50:12.348Z,0.00
2019-01-12T04:52:40.768Z,0.00
2019-01-12T04:55:09.442Z,0.00
2019-01-12T04:57:37.930Z,0.00
2019-01-12T05:00:09.454Z,0.00
2019-01-12T05:02:37.871Z,0.00
2019-01-12T05:05:06.401Z,0.00
2019-01-12T05:07:34.851Z,0.00
2019-01-12T05:10:03.325Z,0.10
2019-01-12T05:12:31.766Z,0.10
2019-01-12T05:15:00.206Z,0.10
2019-01-12T05:17:28.714Z,0.10
2019-01-12T05:19:57.137Z,0.10
2019-01-12T05:22:25.578Z,0.00
2019-01-12T05:24:54.006Z,0.00
2019-01-12T05:27:22.432Z,0.10
2019-01-12T05:29:50.899Z,0.10
2019-01-12T05:32:19.335Z,0.10
2019-01-12T05:34:47.752Z,0.10
2019-01-12T05:37:16.199Z,0.10
2019-01-12T05:39:44.629Z,0.10
2019-01-12T05:42:13.065Z,0.10
2019-01-12T05:44:41.474Z,0.10
2019-01-12T05:47:09.935Z,0.10
2019-01-12T05:49:38.346Z,0.10
2019-01-12T05:52:06.803Z,0.10
2019-01-12T05:54:35.232Z,0.10
2019-01-12T05:57:03.666Z,0.10
2019-01-12T05:59:32.122Z,0.10
2019-01-12T06:02:00.526Z,0.10
2019-01-12T06:04:28.984Z,0.10
2019-01-12T06:06:57.446Z,0.10
2019-01-12T06:09:25.870Z,0.20
2019-01-12T06:11:54.331Z,0.10
2019-01-12T06:14:22.769Z,0.10
2019-01-12T06:16:51.185Z,0.10
2019-01-12T06:19:19.623Z,0.10
2019-01-12T06:21:48.037Z,0.10
2019-01-12T06:24:16.469Z,0.10
2019-01-12T06:26:44.898Z,0.10
2019-01-12T06:29:13.335Z,0.10
2019-01-12T06:31:41.751Z,0.10
2019-01-12T06:34:10.204Z,0.20
2019-01-12T06:36:38.625Z,0.20
2019-01-12T06:39:08.894Z,0.20
2019-01-12T06:41:37.561Z,0.10
2019-01-12T06:44:06.063Z,0.20
2019-01-12T06:46:34.482Z,0.10
2019-01-12T06:49:02.994Z,0.10
2019-01-12T06:51:31.410Z,0.10
2019-01-12T06:53:59.863Z,0.10
2019-01-12T06:56:28.283Z,0.10
2019-01-12T06:58:56.719Z,0.10
2019-01-12T07:01:25.156Z,0.20
2019-01-12T07:03:53.574Z,0.20
2019-01-12T07:06:21.996Z,0.20
2019-01-12T07:08:50.656Z,0.20
2019-01-12T07:11:19.086Z,0.20
2019-01-12T07:13:47.504Z,0.30
2019-01-12T07:16:15.947Z,0.30
2019-01-12T07:18:44.361Z,0.30
2019-01-12T07:21:12.817Z,0.30
2019-01-12T07:23:41.232Z,0.30
2019-01-12T07:26:09.679Z,0.30
2019-01-12T07:28:38.091Z,0.30
2019-01-12T07:31:06.546Z,0.30
2019-01-12T07:33:34.991Z,0.30
2019-01-12T07:36:03.572Z,0.30
2019-01-12T07:38:31.995Z,0.30
2019-01-12T07:41:00.450Z,0.30
2019-01-12T07:43:28.870Z,0.30
2019-01-12T07:45:57.311Z,0.40
2019-01-12T07:48:25.746Z,0.40
2019-01-12T07:50:54.198Z,0.40
2019-01-12T07:53:22.611Z,0.40
2019-01-12T07:55:51.029Z,0.40
2019-01-12T07:58:19.461Z,0.50
2019-01-12T08:00:47.883Z,0.50
2019-01-12T08:03:16.335Z,0.50
2019-01-12T08:05:44.764Z,0.50
2019-01-12T08:08:13.211Z,0.50
2019-01-12T08:10:41.627Z,0.50
2019-01-12T08:13:10.076Z,0.50
2019-01-12T08:15:38.500Z,0.60
2019-01-12T08:18:07.016Z,0.60
2019-01-12T08:20:35.441Z,0.60
2019-01-12T08:23:03.995Z,0.60
2019-01-12T08:25:32.396Z,0.60
2019-01-12T08:28:00.869Z,0.60
2019-01-12T08:30:29.348Z,0.70
2019-01-12T08:32:57.830Z,0.70
2019-01-12T08:35:26.265Z,0.70
2019-01-12T08:37:54.695Z,0.70
2019-01-12T08:40:23.232Z,0.70
2019-01-12T08:42:51.649Z,0.80
2019-01-12T08:45:20.152Z,0.80
2019-01-12T08:47:48.570Z,0.90
2019-01-12T08:50:17.967Z,0.90
2019-01-12T08:52:46.994Z,0.90
2019-01-12T08:55:15.515Z,1.00
2019-01-12T08:57:44.131Z,1.00
2019-01-12T09:00:15.510Z,1.00
2019-01-12T09:02:44.029Z,1.00
2019-01-12T09:05:12.630Z,1.00
2019-01-12T09:07:41.047Z,1.10
2019-01-12T09:10:12.920Z,1.10
2019-01-12T09:12:41.337Z,1.10
2019-01-12T09:15:10.720Z,1.10
2019-01-12T09:17:39.248Z,1.10
2019-01-12T09:20:13.507Z,1.10
2019-01-12T09:22:42.284Z,1.10
2019-01-12T09:25:11.751Z,1.10
2019-01-12T09:27:40.194Z,1.20
2019-01-12T09:30:11.914Z,1.20
2019-01-12T09:32:40.342Z,1.20
2019-01-12T09:35:08.998Z,1.20
2019-01-12T09:37:37.515Z,1.30
2019-01-12T09:40:09.123Z,1.30
2019-01-12T09:42:37.583Z,1.30
2019-01-12T09:45:08.318Z,1.30
2019-01-12T09:47:36.843Z,1.30
2019-01-12T09:50:08.358Z,1.30
2019-01-12T09:52:36.807Z,1.30
2019-01-12T09:55:06.678Z,1.20
2019-01-12T09:57:35.142Z,1.30
2019-01-12T10:00:05.534Z,1.30
2019-01-12T10:02:33.988Z,1.30
2019-01-12T10:05:02.465Z,1.30
2019-01-12T10:07:30.875Z,1.30
2019-01-12T10:09:59.391Z,1.40
2019-01-12T10:12:27.837Z,1.40
2019-01-12T10:14:56.268Z,1.40
2019-01-12T10:17:24.690Z,1.40
2019-01-12T10:19:53.135Z,1.40
2019-01-12T10:22:21.553Z,1.30
2019-01-12T10:24:49.996Z,1.30
2019-01-12T10:27:18.478Z,1.30
2019-01-12T10:29:46.918Z,1.30
2019-01-12T10:32:15.349Z,1.20
2019-01-12T10:34:43.795Z,1.30
2019-01-12T10:37:12.355Z,1.30
2019-01-12T10:39:40.866Z,1.40
2019-01-12T10:42:09.412Z,1.30
2019-01-12T10:44:37.859Z,1.40
2019-01-12T10:47:06.374Z,1.40
2019-01-12T10:49:36.413Z,1.40
2019-01-12T10:52:05.023Z,1.50
2019-01-12T10:54:33.511Z,1.40
2019-01-12T10:57:05.389Z,1.50
2019-01-12T10:59:32.112Z,1.60
2019-01-12T11:02:00.565Z,1.60
2019-01-12T11:04:28.988Z,1.60
2019-01-12T11:06:57.425Z,1.60
2019-01-12T11:09:25.925Z,1.70
2019-01-12T11:11:54.364Z,1.70
2019-01-12T11:14:22.947Z,1.70
2019-01-12T11:16:51.546Z,1.80
2019-01-12T11:19:19.976Z,1.80
2019-01-12T11:21:48.412Z,1.80
2019-01-12T11:24:16.843Z,1.80
2019-01-12T11:26:45.339Z,1.90
2019-01-12T11:29:13.764Z,1.80
2019-01-12T11:31:42.192Z,1.80
2019-01-12T11:34:10.611Z,1.80
2019-01-12T11:36:39.053Z,1.80
2019-01-12T11:39:07.727Z,1.90
2019-01-12T11:41:36.246Z,1.80
2019-01-12T11:44:04.812Z,1.80
2019-01-12T11:46:36.116Z,1.70
2019-01-12T11:49:04.701Z,1.70
2019-01-12T11:51:33.135Z,1.70
2019-01-12T11:54:01.575Z,1.70
2019-01-12T11:56:30.002Z,1.60
2019-01-12T11:58:58.452Z,1.50
2019-01-12T12:01:26.872Z,1.50
2019-01-12T12:03:55.548Z,1.50
2019-01-12T12:06:24.062Z,1.50
2019-01-12T12:08:52.504Z,1.50
2019-01-12T12:11:20.931Z,1.50
2019-01-12T12:13:49.393Z,1.60
2019-01-12T12:16:18.053Z,1.50
2019-01-12T12:18:46.490Z,1.50
2019-01-12T12:21:14.928Z,1.60
2019-01-12T12:23:43.407Z,1.60
2019-01-12T12:26:11.892Z,1.60
2019-01-12T12:28:40.343Z,1.60
2019-01-12T12:31:08.802Z,1.60
2019-01-12T12:33:37.211Z,1.60
2019-01-12T12:36:05.734Z,1.70
2019-01-12T12:38:34.147Z,1.70
2019-01-12T12:41:02.590Z,1.70
2019-01-12T12:43:31.162Z,1.70
2019-01-12T12:45:59.652Z,1.80
2019-01-12T12:48:28.087Z,1.90
2019-01-12T12:50:56.543Z,1.80
2019-01-12T12:53:25.059Z,1.90
2019-01-12T12:55:53.517Z,1.90
2019-01-12T12:58:22.010Z,1.90
2019-01-12T13:00:50.451Z,1.90
2019-01-12T13:03:18.950Z,1.90
2019-01-12T13:05:47.383Z,1.90
2019-01-12T13:08:15.867Z,1.80
2019-01-12T13:10:44.450Z,1.80
2019-01-12T13:13:12.998Z,1.70
2019-01-12T13:15:42.516Z,1.80
2019-01-12T13:18:11.148Z,1.70
2019-01-12T13:20:39.678Z,1.70
2019-01-12T13:23:08.124Z,1.70
2019-01-12T13:25:36.547Z,1.70
2019-01-12T13:28:05.240Z,1.60
2019-01-12T13:30:33.842Z,1.60
2019-01-12T13:33:02.316Z,1.70
2019-01-12T13:35:30.730Z,1.70
2019-01-12T13:37:59.301Z,1.80
2019-01-12T13:40:28.025Z,1.80
2019-01-12T13:42:56.736Z,1.80
2019-01-12T13:45:25.390Z,1.80
2019-01-12T13:47:53.909Z,1.80
2019-01-12T13:50:24.375Z,1.80
2019-01-12T13:52:52.943Z,1.80
2019-01-12T13:55:21.448Z,1.70
2019-01-12T13:57:49.960Z,1.70
2019-01-12T14:00:24.401Z,1.70
2019-01-12T14:02:52.995Z,1.70
2019-01-12T14:05:21.515Z,1.60
2019-01-12T14:07:56.070Z,1.60
2019-01-12T14:10:22.298Z,1.60
2019-01-12T14:12:50.794Z,1.60
2019-01-12T14:15:19.875Z,1.60
2019-01-12T14:17:48.574Z,1.60
2019-01-12T14:20:25.881Z,1.60
2019-01-12T14:22:54.409Z,1.60
2019-01-12T14:25:22.886Z,1.60
2019-01-12T14:27:54.793Z,1.60
2019-01-12T14:30:21.703Z,1.60
2019-01-12T14:32:50.403Z,1.70
2019-01-12T14:35:19.275Z,1.60
2019-01-12T14:37:48.359Z,1.60
2019-01-12T14:40:18.849Z,1.60
2019-01-12T14:42:47.290Z,1.60
2019-01-12T14:45:18.734Z,1.60
2019-01-12T14:47:47.167Z,1.60
2019-01-12T14:50:15.678Z,1.60
2019-01-12T14:52:44.323Z,1.60
2019-01-12T14:55:15.600Z,1.60
2019-01-12T14:57:44.104Z,1.60
2019-01-12T15:00:17.536Z,1.60
2019-01-12T15:02:46.945Z,1.60
2019-01-12T15:05:17.482Z,1.60
2019-01-12T15:07:46.080Z,1.60
2019-01-12T15:10:16.728Z,1.60
2019-01-12T15:12:45.394Z,1.60
2019-01-12T15:15:15.661Z,1.60
2019-01-12T15:17:44.336Z,1.60
2019-01-12T15:20:15.963Z,1.70
2019-01-12T15:22:44.488Z,1.70
2019-01-12T15:25:13.992Z,1.70
2019-01-12T15:27:42.445Z,1.60
2019-01-12T15:30:14.202Z,1.60
2019-01-12T15:32:42.851Z,1.60
2019-01-12T15:35:12.831Z,1.60
2019-01-12T15:37:43.390Z,1.60
2019-01-12T15:40:15.226Z,1.60
2019-01-12T15:42:43.831Z,1.60
2019-01-12T15:45:15.003Z,1.60
2019-01-12T15:47:43.581Z,1.60
2019-01-12T15:50:17.432Z,1.60
2019-01-12T15:52:46.122Z,1.60
2019-01-12T15:55:14.689Z,1.50
2019-01-12T15:57:43.203Z,1.50
2019-01-12T16:00:17.542Z,1.60
2019-01-12T16:02:45.994Z,1.50
2019-01-12T16:05:14.586Z,1.50
2019-01-12T16:07:43.107Z,1.50
2019-01-12T16:10:13.603Z,1.50
2019-01-12T16:12:42.025Z,1.60
2019-01-12T16:15:16.717Z,1.70
2019-01-12T16:17:45.578Z,1.70
2019-01-12T16:20:17.130Z,1.60
2019-01-12T16:22:45.673Z,1.60
2019-01-12T16:25:14.190Z,1.70
2019-01-12T16:27:42.596Z,1.70
2019-01-12T16:30:14.182Z,1.70
2019-01-12T16:32:42.640Z,1.70
2019-01-12T16:35:11.210Z,1.60
2019-01-12T16:37:39.642Z,1.60
2019-01-12T16:40:11.209Z,1.70
2019-01-12T16:42:39.715Z,1.70
2019-01-12T16:45:09.607Z,1.60
2019-01-12T16:47:38.095Z,1.60
2019-01-12T16:50:07.770Z,1.60
2019-01-12T16:52:36.273Z,1.70
2019-01-12T16:55:07.938Z,1.60
2019-01-12T16:57:36.418Z,1.60
2019-01-12T17:00:08.014Z,1.60
2019-01-12T17:02:36.448Z,1.50
2019-01-12T17:05:05.844Z,1.40
2019-01-12T17:07:34.272Z,1.40
2019-01-12T17:10:03.882Z,1.40
2019-01-12T17:12:33.858Z,1.30
2019-01-12T17:15:02.325Z,1.30
2019-01-12T17:17:30.773Z,1.20
2019-01-12T17:19:59.218Z,1.20
2019-01-12T17:22:27.659Z,1.20
2019-01-12T17:24:56.091Z,1.10
2019-01-12T17:27:24.548Z,1.10
2019-01-12T17:29:52.954Z,1.00
2019-01-12T17:32:21.420Z,1.10
2019-01-12T17:34:49.820Z,1.00
2019-01-12T17:37:19.005Z,1.00
2019-01-12T17:39:47.500Z,1.00
2019-01-12T17:42:15.959Z,1.00
2019-01-12T17:44:44.378Z,1.00
2019-01-12T17:47:12.816Z,0.90
2019-01-12T17:49:41.258Z,0.90
2019-01-12T17:52:09.754Z,0.90
2019-01-12T17:54:38.183Z,0.80
2019-01-12T17:57:06.715Z,0.80
2019-01-12T17:59:35.137Z,0.80
2019-01-12T18:02:04.139Z,0.80
2019-01-12T18:04:32.656Z,0.70
2019-01-12T18:07:01.083Z,0.70
2019-01-12T18:09:29.520Z,0.70
2019-01-12T18:11:58.967Z,0.70
2019-01-12T18:14:27.442Z,0.70
2019-01-12T18:16:55.884Z,0.60
2019-01-12T18:19:24.339Z,0.60
2019-01-12T18:21:52.878Z,0.60
2019-01-12T18:24:21.339Z,0.60
2019-01-12T18:26:49.765Z,0.60
2019-01-12T18:29:18.238Z,0.60
2019-01-12T18:31:46.710Z,0.60
2019-01-12T18:34:15.146Z,0.60
2019-01-12T18:36:43.559Z,0.60
2019-01-12T18:39:12.111Z,0.60
2019-01-12T18:41:40.749Z,0.60
2019-01-12T18:44:09.330Z,0.60
2019-01-12T18:46:39.320Z,0.60
2019-01-12T18:49:07.902Z,0.60
2019-01-12T18:51:36.366Z,0.60
2019-01-12T18:54:05.028Z,0.60
2019-01-12T18:56:33.592Z,0.60
2019-01-12T18:59:02.019Z,0.60
2019-01-12T19:01:30.482Z,0.60
2019-01-12T19:03:58.928Z,0.60
2019-01-12T19:06:27.432Z,0.60
2019-01-12T19:08:55.944Z,0.60
2019-01-12T19:11:24.392Z,0.60
2019-01-12T19:13:52.837Z,0.60
2019-01-12T19:16:21.267Z,0.60
2019-01-12T19:18:49.765Z,0.60
2019-01-12T19:21:18.212Z,0.60
2019-01-12T19:23:46.648Z,0.60
2019-01-12T19:26:15.105Z,0.60
2019-01-12T19:28:43.506Z,0.50
2019-01-12T19:31:12.021Z,0.50
2019-01-12T19:33:40.449Z,0.50
2019-01-12T19:36:08.912Z,0.50
2019-01-12T19:38:37.347Z,0.60
2019-01-12T19:41:05.806Z,0.60
2019-01-12T19:43:34.287Z,0.60
2019-01-12T19:46:02.803Z,0.70
2019-01-12T19:48:31.246Z,0.70
2019-01-12T19:50:59.647Z,0.70
2019-01-12T19:53:28.104Z,0.70
2019-01-12T19:55:56.515Z,0.70
2019-01-12T19:58:26.094Z,0.90
2019-01-12T20:00:54.736Z,0.90
2019-01-12T20:03:23.195Z,0.90
2019-01-12T20:05:51.685Z,0.90
2019-01-12T20:08:20.172Z,0.90
2019-01-12T20:10:48.590Z,0.90
2019-01-12T20:13:17.048Z,0.90
2019-01-12T20:15:45.526Z,0.90
2019-01-12T20:18:14.012Z,0.90
2019-01-12T20:20:42.461Z,0.90
2019-01-12T20:23:10.992Z,1.00
2019-01-12T20:25:39.591Z,1.00
2019-01-12T20:28:08.304Z,1.00
2019-01-12T20:30:48.864Z,1.10
2019-01-12T20:33:32.278Z,1.10
2019-01-12T20:36:03.843Z,1.10
2019-01-12T20:38:44.499Z,1.10
2019-01-12T20:41:21.818Z,1.00
2019-01-12T20:43:58.892Z,1.10
2019-01-12T20:46:39.000Z,1.10
2019-01-12T20:49:16.192Z,1.10
2019-01-12T20:52:02.770Z,1.10
2019-01-12T20:54:36.932Z,1.00
2019-01-12T20:57:26.401Z,1.10
2019-01-12T21:00:25.418Z,1.10
2019-01-12T21:02:59.926Z,1.00
2019-01-12T21:05:52.623Z,1.00
2019-01-12T21:08:30.111Z,1.00
2019-01-12T21:11:07.372Z,1.00
2019-01-12T21:13:57.015Z,1.10
2019-01-12T21:16:30.780Z,1.10
2019-01-12T21:18:59.360Z,1.00
2019-01-12T21:21:27.951Z,1.00
2019-01-12T21:23:56.372Z,1.00
2019-01-12T21:26:24.885Z,1.00
2019-01-12T21:28:53.334Z,1.00
2019-01-12T21:31:21.778Z,1.10
2019-01-12T21:33:50.319Z,1.00
2019-01-12T21:36:18.784Z,0.90
2019-01-12T21:38:47.262Z,1.00
2019-01-12T21:41:15.678Z,1.00
2019-01-12T21:43:44.127Z,1.00
2019-01-12T21:46:12.572Z,1.00
2019-01-12T21:48:41.045Z,1.00
2019-01-12T21:51:09.653Z,1.00
2019-01-12T21:53:38.105Z,1.00
2019-01-12T21:56:06.677Z,1.00
2019-01-12T21:58:35.142Z,0.90
2019-01-12T22:01:03.672Z,1.00
2019-01-12T22:03:32.122Z,1.00
2019-01-12T22:06:00.560Z,0.90
2019-01-12T22:08:29.006Z,0.90
2019-01-12T22:10:57.434Z,0.90
2019-01-12T22:13:25.936Z,0.90
2019-01-12T22:15:54.367Z,0.90
2019-01-12T22:18:22.815Z,0.90
2019-01-12T22:20:51.219Z,0.90
2019-01-12T22:23:19.664Z,0.90
2019-01-12T22:25:48.101Z,0.90
2019-01-12T22:28:16.535Z,0.90
2019-01-12T22:30:44.984Z,1.00
2019-01-12T22:33:13.412Z,1.00
2019-01-12T22:35:41.847Z,1.00
2019-01-12T22:38:10.267Z,1.00
2019-01-12T22:40:38.724Z,1.00
2019-01-12T22:43:07.124Z,1.00
2019-01-12T22:45:35.579Z,1.00
2019-01-12T22:48:04.078Z,1.00
2019-01-12T22:50:32.545Z,0.90
2019-01-12T22:53:00.982Z,1.00
2019-01-12T22:55:29.419Z,1.00
2019-01-12T22:57:57.850Z,1.00
2019-01-12T23:00:36.517Z,1.00
2019-01-12T23:03:05.284Z,1.00
2019-01-12T23:05:33.857Z,1.00
2019-01-12T23:08:02.351Z,1.00
2019-01-12T23:10:30.770Z,0.90
2019-01-12T23:12:59.198Z,0.90
2019-01-12T23:15:27.610Z,1.00
2019-01-12T23:17:56.072Z,1.00
2019-01-12T23:20:24.487Z,1.00
2019-01-12T23:22:53.036Z,0.90
2019-01-12T23:25:21.483Z,0.90
2019-01-12T23:27:49.927Z,0.90
2019-01-12T23:30:19.202Z,1.00
2019-01-12T23:32:47.651Z,1.00
2019-01-12T23:35:16.150Z,1.00
2019-01-12T23:37:44.667Z,1.00
2019-01-12T23:40:14.050Z,1.10
2019-01-12T23:42:42.722Z,1.10
2019-01-12T23:45:12.876Z,1.00
2019-01-12T23:47:41.396Z,0.90
2019-01-12T23:50:11.659Z,1.00
2019-01-12T23:52:40.097Z,0.90
2019-01-12T23:55:08.862Z,0.90
2019-01-12T23:57:37.315Z,0.90
